Time;durP1;ratioP1;P1;durP2;ratioP2;P2;SDS_P1;SDS_P2;PMS_P1;PMS_P2;Temp;Humidity;BMP_temperature;BMP_pressure;BME280_temperature;BME280_humidity;BME280_pressure;Samples;Min_cycle;Max_cycle;Signal;HPM_P1;HPM_P2
2023/10/07 00:02:11;;;;;;;16.92;13.93;;;;;;;29.33;66.35;100988.63;5041091;28;69971;-38
2023/10/07 00:04:44;;;;;;;19.35;15.85;;;;;;;29.12;66.49;100949.16;5039925;28;66831;-39
2023/10/07 00:07:15;;;;;;;35.35;21.85;;;;;;;29.38;73.84;101015.06;5040814;28;69568;-38
2023/10/07 00:09:49;;;;;;;41.53;22.55;;;;;;;29.34;77.43;101011.94;5039682;28;65838;-39
2023/10/07 00:12:20;;;;;;;42.78;23.77;;;;;;;29.30;77.90;101005.25;5041750;28;69393;-39
2023/10/07 00:14:50;;;;;;;45.13;25.73;;;;;;;29.30;75.39;100989.06;5032348;28;66183;-38
2023/10/07 00:17:21;;;;;;;52.47;26.63;;;;;;;29.39;78.28;101017.56;5041304;28;69951;-39
2023/10/07 00:19:52;;;;;;;58.72;29.73;;;;;;;29.30;78.31;101002.56;5040972;28;66562;-39
2023/10/07 00:22:26;;;;;;;57.45;29.50;;;;;;;29.36;80.67;101019.81;5043848;28;69434;-38
2023/10/07 00:24:58;;;;;;;63.72;31.60;;;;;;;29.51;76.90;101027.75;5039244;28;68142;-38
2023/10/07 00:27:37;;;;;;;59.85;31.77;;;;;;;29.59;74.94;101022.97;5040015;28;70671;-39
2023/10/07 00:30:22;;;;;;;53.50;30.33;;;;;;;29.60;75.74;101015.69;5041302;28;67338;-39
2023/10/07 00:32:55;;;;;;;56.17;29.85;;;;;;;29.69;76.23;101019.03;5040442;28;70768;-39
2023/10/07 00:35:28;;;;;;;43.95;24.40;;;;;;;29.33;74.10;100966.19;5035546;28;65200;-38
2023/10/07 00:37:59;;;;;;;32.97;22.10;;;;;;;29.72;73.64;101030.25;5037625;28;70521;-38
2023/10/07 00:40:41;;;;;;;48.72;26.05;;;;;;;29.66;78.47;101030.25;5035172;28;66312;-40
2023/10/07 00:43:30;;;;;;;41.95;25.70;;;;;;;29.53;82.80;101014.84;5037625;28;70301;-39
2023/10/07 00:46:10;;;;;;;40.88;25.70;;;;;;;29.66;77.02;101009.47;5040246;28;66416;-40
2023/10/07 00:51:33;;;;;;;30.40;20.23;;;;;;;29.72;75.53;101008.63;5049246;28;64978;-38
2023/10/07 00:54:17;;;;;;;26.60;19.02;;;;;;;29.81;75.11;101022.75;5018888;28;69689;-40
2023/10/07 00:57:07;;;;;;;37.17;19.33;;;;;;;29.71;81.22;101028.59;5038014;28;67932;-38
2023/10/07 00:59:43;;;;;;;30.02;19.02;;;;;;;29.67;81.79;101032.78;5021671;28;69351;-40
2023/10/07 01:02:30;;;;;;;24.58;17.52;;;;;;;29.62;82.99;101032.53;5035476;28;65929;-38
2023/10/07 01:05:13;;;;;;;22.38;16.73;;;;;;;29.61;83.21;101028.16;5037748;28;69676;-39
2023/10/07 01:07:53;;;;;;;24.75;18.48;;;;;;;29.58;83.65;101034.78;5038074;28;66048;-39
2023/10/07 01:10:31;;;;;;;23.40;17.10;;;;;;;29.58;83.54;101040.19;5035493;28;69680;-40
2023/10/07 01:13:03;;;;;;;31.77;18.33;;;;;;;29.58;84.21;101040.19;5037609;28;66482;-41
2023/10/07 01:15:35;;;;;;;32.85;19.23;;;;;;;29.59;84.73;101041.88;5039400;28;70271;-40
2023/10/07 01:18:06;;;;;;;23.73;16.92;;;;;;;29.56;84.76;101038.75;5039142;28;66576;-38
2023/10/07 01:23:32;;;;;;;26.17;17.52;;;;;;;29.62;85.12;101048.75;5038422;28;66082;-40
2023/10/07 01:26:14;;;;;;;25.33;18.60;;;;;;;29.64;85.26;101049.38;5038774;28;69944;-39
2023/10/07 01:28:44;;;;;;;28.35;18.90;;;;;;;29.67;84.63;101054.41;5036864;28;66319;-39
2023/10/07 01:31:18;;;;;;;24.00;18.02;;;;;;;29.57;84.20;101026.91;5038081;28;70530;-43
2023/10/07 01:33:51;;;;;;;26.52;19.33;;;;;;;29.75;83.06;101056.88;5038674;28;66070;-40
2023/10/07 01:36:24;;;;;;;26.15;18.70;;;;;;;29.74;85.10;101066.03;5034427;28;70128;-40
2023/10/07 01:38:55;;;;;;;21.50;17.40;;;;;;;29.60;85.54;101042.72;5035019;28;65398;-40
2023/10/07 01:41:27;;;;;;;30.17;18.58;;;;;;;29.79;85.18;101066.25;5037438;28;70687;-39
2023/10/07 01:44:04;;;;;;;18.23;15.85;;;;;;;29.74;85.51;101059.78;5050816;28;66745;-42
2023/10/07 01:46:38;;;;;;;21.80;16.33;;;;;;;29.79;85.54;101068.94;5038361;28;70129;-38
2023/10/07 01:49:12;;;;;;;21.40;15.02;;;;;;;29.84;85.51;101079.16;5037176;28;66119;-38
2023/10/07 01:51:45;;;;;;;18.80;16.00;;;;;;;29.82;85.58;101071.22;5038476;28;70538;-38
2023/10/07 01:54:19;;;;;;;20.02;14.05;;;;;;;29.90;85.47;101074.78;5038630;28;65323;-39
2023/10/07 01:56:53;;;;;;;16.95;14.20;;;;;;;29.88;85.36;101071.44;5036359;28;70698;-39
2023/10/07 01:59:24;;;;;;;13.93;12.50;;;;;;;29.94;85.42;101081.41;5037327;28;66835;-38
2023/10/07 02:01:58;;;;;;;13.18;11.70;;;;;;;30.12;80.27;101075.38;5033745;28;70316;-39
2023/10/07 02:04:29;;;;;;;11.13;10.10;;;;;;;30.22;79.53;101087.44;5037072;28;65357;-39
2023/10/07 02:06:59;;;;;;;11.05;10.00;;;;;;;30.30;78.99;101085.56;5034354;28;70424;-39
2023/10/07 02:09:36;;;;;;;10.68;9.60;;;;;;;30.33;78.10;101085.97;5035622;28;66148;-40
2023/10/07 02:12:11;;;;;;;10.38;9.40;;;;;;;30.39;77.63;101095.09;5037353;28;69429;-40
2023/10/07 02:14:42;;;;;;;9.98;9.02;;;;;;;30.33;77.76;101068.91;5036693;28;66403;-41
2023/10/07 02:17:14;;;;;;;9.73;8.77;;;;;;;30.41;77.51;101077.63;5038782;28;70189;-40
2023/10/07 02:19:47;;;;;;;10.25;9.35;;;;;;;30.50;77.19;101098.00;5038535;28;65975;-39
2023/10/07 02:22:28;;;;;;;9.80;8.90;;;;;;;30.50;77.29;101080.91;5051857;28;70567;-39
2023/10/07 02:25:04;;;;;;;9.45;8.52;;;;;;;30.49;77.11;101076.56;5038740;28;43557;-39
2023/10/07 02:27:41;;;;;;;10.13;9.20;;;;;;;30.57;77.02;101084.44;5034691;28;70367;-41
2023/10/07 02:30:19;;;;;;;8.93;8.10;;;;;;;30.65;77.07;101094.22;5028460;28;65851;-40
2023/10/07 02:32:50;;;;;;;9.43;7.95;;;;;;;30.51;76.27;101058.25;5037680;28;69579;-39
2023/10/07 02:35:21;;;;;;;8.57;7.97;;;;;;;30.70;76.58;101091.69;5038639;28;66052;-39
2023/10/07 02:37:53;;;;;;;8.35;7.75;;;;;;;30.69;76.59;101080.03;5017218;28;70275;-40
2023/10/07 02:40:36;;;;;;;8.65;7.80;;;;;;;30.72;76.12;101079.59;5035353;28;66739;-39
2023/10/07 02:43:07;;;;;;;7.07;6.57;;;;;;;30.78;76.47;101071.66;5037649;28;70864;-39
2023/10/07 02:45:42;;;;;;;7.85;7.22;;;;;;;30.73;76.23;101054.19;5040837;28;66402;-39
2023/10/07 02:48:13;;;;;;;7.55;7.05;;;;;;;30.85;75.99;101073.31;5020868;28;69133;-39
2023/10/07 02:50:44;;;;;;;7.80;7.22;;;;;;;30.83;75.96;101064.56;5053323;28;67606;-40
2023/10/07 02:53:15;;;;;;;8.07;7.38;;;;;;;30.90;75.74;101072.69;5036828;28;70277;-39
2023/10/07 02:55:54;;;;;;;7.72;6.72;;;;;;;30.94;75.65;101066.59;5035999;28;66694;-39
2023/10/07 03:01:25;;;;;;;7.38;6.78;;;;;;;30.98;75.77;101060.75;5026072;28;65887;-40
2023/10/07 03:04:00;;;;;;;7.72;7.05;;;;;;;30.80;75.73;101031.69;5034939;28;70654;-40
2023/10/07 03:06:31;;;;;;;7.55;6.82;;;;;;;31.00;75.40;101054.06;5038099;28;66453;-40
2023/10/07 03:09:09;;;;;;;7.23;6.57;;;;;;;31.01;75.63;101050.34;5036483;28;70042;-39
2023/10/07 03:11:40;;;;;;;8.02;7.30;;;;;;;31.02;75.36;101054.69;5037375;28;65091;-40
2023/10/07 03:14:19;;;;;;;7.65;6.97;;;;;;;31.06;75.59;101047.78;5035866;28;70576;-40
2023/10/07 03:17:00;;;;;;;7.97;7.18;;;;;;;31.10;75.58;101043.59;5041061;28;66610;-40
2023/10/07 03:19:53;;;;;;;10.98;6.82;;;;;;;31.11;75.19;101039.81;5046465;28;69703;-40
2023/10/07 03:22:33;;;;;;;7.70;7.00;;;;;;;31.13;75.17;101035.03;5047074;28;66388;-39
2023/10/07 03:25:06;;;;;;;10.40;7.90;;;;;;;30.80;78.73;101026.28;5048802;28;70276;-37
2023/10/07 03:27:39;;;;;;;9.27;8.43;;;;;;;30.76;79.33;101025.00;5040873;28;65445;-38
2023/10/07 03:30:13;;;;;;;8.13;7.32;;;;;;;30.69;80.14;101031.28;5041386;28;69479;-39
2023/10/07 03:32:57;;;;;;;8.70;8.00;;;;;;;30.68;80.31;101024.22;5041477;28;66535;-40
2023/10/07 03:35:46;;;;;;;8.05;7.35;;;;;;;30.64;80.76;101020.25;5041305;28;70004;-39
2023/10/07 03:38:18;;;;;;;7.50;6.82;;;;;;;30.54;80.25;101000.13;5039443;28;64861;-38
2023/10/07 03:40:48;;;;;;;10.75;7.18;;;;;;;30.58;80.59;100996.75;5052571;28;70736;-38
2023/10/07 03:43:19;;;;;;;7.40;6.70;;;;;;;30.64;80.84;101009.44;5039435;28;66359;-39
2023/10/07 03:45:50;;;;;;;10.07;6.68;;;;;;;30.64;80.30;100995.88;5036831;28;70143;-40
2023/10/07 03:48:40;;;;;;;6.75;6.15;;;;;;;30.64;80.90;100995.88;5039681;28;65871;-39
2023/10/07 03:51:12;;;;;;;7.57;6.75;;;;;;;30.65;80.54;100992.16;5038905;28;70679;-39
2023/10/07 03:53:45;;;;;;;7.03;6.53;;;;;;;30.64;80.31;100989.66;5039055;28;65889;-38
2023/10/07 03:56:16;;;;;;;6.82;6.32;;;;;;;30.68;80.39;100980.88;5037503;28;69332;-38
2023/10/07 03:58:48;;;;;;;9.68;7.05;;;;;;;30.68;80.36;100986.31;5040036;28;65689;-39
2023/10/07 04:01:18;;;;;;;7.10;6.40;;;;;;;30.68;80.38;100978.19;5034209;28;70235;-39
2023/10/07 04:03:51;;;;;;;10.45;6.35;;;;;;;30.66;79.60;100960.50;5040143;28;66029;-41
2023/10/07 04:06:30;;;;;;;9.30;6.28;;;;;;;30.68;79.86;100958.41;5035263;28;69811;-40
2023/10/07 04:09:11;;;;;;;7.75;6.15;;;;;;;30.75;79.66;100963.75;5039778;28;66774;-39
2023/10/07 04:11:48;;;;;;;6.50;5.90;;;;;;;30.75;79.32;100952.94;5038532;28;70229;-39
2023/10/07 04:14:35;;;;;;;9.45;6.03;;;;;;;30.79;79.60;100954.19;5037561;28;66180;-39
2023/10/07 04:17:11;;;;;;;6.25;5.65;;;;;;;30.75;79.41;100942.09;5040973;28;69733;-40
2023/10/07 04:19:45;;;;;;;6.60;5.95;;;;;;;30.79;79.40;100955.00;5030781;28;65843;-43
2023/10/07 04:22:18;;;;;;;8.95;6.13;;;;;;;30.77;79.29;100934.59;5038739;28;71270;-40
2023/10/07 04:24:50;;;;;;;7.57;6.47;;;;;;;30.86;78.99;100944.16;5039324;28;65930;-39
2023/10/07 04:27:20;;;;;;;;;;;;;;;30.58;80.21;100931.78;5040369;28;69973;-40
2023/10/07 04:29:55;;;;;;;6.30;5.53;;;;;;;30.79;79.02;100924.38;5038926;28;66516;-39
2023/10/07 04:32:35;;;;;;;8.23;6.15;;;;;;;30.89;78.96;100927.44;5039878;28;69598;-39
2023/10/07 04:35:16;;;;;;;6.38;5.88;;;;;;;30.93;79.04;100929.50;5021350;28;66674;-39
2023/10/07 04:37:54;;;;;;;8.70;6.60;;;;;;;30.93;78.95;100923.28;5031555;28;69937;-39
2023/10/07 04:45:53;;;;;;;6.43;5.80;;;;;;;30.99;79.00;100899.88;5038128;28;66561;-37
2023/10/07 04:48:24;;;;;;;6.18;4.93;;;;;;;31.00;79.35;100907.78;5038921;28;71458;-40
2023/10/07 04:51:04;;;;;;;7.93;5.95;;;;;;;31.03;78.92;100904.63;5051836;28;66431;-39
2023/10/07 04:53:39;;;;;;;5.20;4.80;;;;;;;31.03;79.01;100901.91;5043943;28;70558;-38
2023/10/07 04:56:20;;;;;;;5.40;4.90;;;;;;;31.05;78.81;100888.97;5056717;28;66741;-45
2023/10/07 04:58:53;;;;;;;4.28;3.97;;;;;;;31.03;78.35;100888.38;5054670;28;71415;-40
2023/10/07 05:01:33;;;;;;;5.72;4.82;;;;;;;31.35;76.83;100888.31;5040382;28;65651;-41
2023/10/07 05:04:05;;;;;;;9.07;4.30;;;;;;;31.50;76.03;100888.81;5036489;28;70104;-40
2023/10/07 05:06:37;;;;;;;4.07;3.78;;;;;;;31.55;76.30;100878.13;5036498;28;66105;-38
2023/10/07 05:09:09;;;;;;;3.58;3.28;;;;;;;31.67;75.16;100885.50;5052819;28;70296;-38
2023/10/07 05:11:42;;;;;;;4.28;3.55;;;;;;;31.74;75.28;100867.28;5044173;28;65063;-40
2023/10/07 05:14:22;;;;;;;4.13;3.72;;;;;;;31.75;75.06;100866.22;5038264;28;69900;-38
2023/10/07 05:16:52;;;;;;;5.20;3.30;;;;;;;31.75;74.76;100844.53;5038261;28;66132;-39
2023/10/07 05:19:23;;;;;;;4.40;4.00;;;;;;;31.90;74.50;100853.09;5039212;28;70452;-38
2023/10/07 05:22:14;;;;;;;4.70;3.40;;;;;;;31.61;74.78;100830.28;5038773;28;65331;-38
2023/10/07 05:24:47;;;;;;;4.97;3.72;;;;;;;31.61;75.41;100844.66;5036741;28;70230;-38
2023/10/07 05:27:18;;;;;;;4.95;2.97;;;;;;;31.50;75.57;100837.28;5035380;28;66371;-38
2023/10/07 05:29:49;;;;;;;5.00;3.80;;;;;;;31.50;75.43;100837.28;5038586;28;70833;-39
2023/10/07 05:32:20;;;;;;;2.63;2.43;;;;;;;31.53;75.80;100836.00;5039231;28;66492;-39
2023/10/07 05:34:51;;;;;;;2.92;2.53;;;;;;;31.65;75.28;100827.94;5044763;28;70205;-39
2023/10/07 05:37:24;;;;;;;2.40;2.13;;;;;;;31.61;75.18;100806.72;5038922;28;65358;-38
2023/10/07 05:39:55;;;;;;;3.13;1.70;;;;;;;31.74;75.45;100821.19;5038272;28;70256;-39
2023/10/07 05:42:25;;;;;;;2.22;1.95;;;;;;;31.78;75.12;100830.50;5035723;28;66458;-39
2023/10/07 05:44:57;;;;;;;2.25;2.05;;;;;;;31.78;75.03;100827.78;5033643;28;69974;-40
2023/10/07 05:47:30;;;;;;;1.52;1.42;;;;;;;31.69;74.97;100796.63;5038955;28;65273;-39
2023/10/07 05:50:01;;;;;;;2.03;1.67;;;;;;;32.00;74.38;100811.88;5038708;28;70552;-39
2023/10/07 05:52:32;;;;;;;2.72;1.77;;;;;;;31.99;73.91;100780.41;5039976;28;66277;-41
2023/10/07 05:55:03;;;;;;;1.77;1.60;;;;;;;32.14;74.08;100796.25;5038338;28;70013;-38
2023/10/07 05:57:34;;;;;;;3.60;1.55;;;;;;;32.18;73.86;100782.00;5039464;28;67378;-38
2023/10/07 06:00:10;;;;;;;3.93;2.17;;;;;;;32.18;73.78;100778.44;5035796;28;69896;-38
2023/10/07 06:02:40;;;;;;;3.92;2.45;;;;;;;32.29;73.21;100774.94;5038013;28;66472;-38
2023/10/07 06:05:11;;;;;;;1.98;1.77;;;;;;;32.32;73.19;100796.19;5033906;28;69919;-38
2023/10/07 06:07:45;;;;;;;1.92;1.75;;;;;;;32.33;73.23;100781.56;5038513;28;66704;-38
2023/10/07 06:10:16;;;;;;;2.72;1.92;;;;;;;32.16;73.11;100756.16;5037671;28;70333;-39
2023/10/07 06:12:47;;;;;;;2.60;2.20;;;;;;;32.43;72.81;100781.81;5033721;28;66263;-40
2023/10/07 06:15:18;;;;;;;;;;;;;;;32.22;73.29;100785.06;5039506;28;70656;-39
2023/10/07 06:17:51;;;;;;;2.70;2.00;;;;;;;32.41;72.68;100767.66;5036787;28;66393;-39
2023/10/07 06:20:28;;;;;;;2.33;1.95;;;;;;;32.49;72.61;100766.50;5033752;28;69935;-39
2023/10/07 06:23:00;;;;;;;2.13;1.92;;;;;;;32.49;72.06;100752.94;5037014;28;66751;-42
2023/10/07 06:25:36;;;;;;;2.15;1.75;;;;;;;32.23;71.80;100702.56;5038072;28;69676;-40
2023/10/07 06:28:19;;;;;;;3.95;1.58;;;;;;;32.56;71.76;100741.94;5034679;28;65984;-39
2023/10/07 06:30:51;;;;;;;;;;;;;;;32.36;71.53;100742.25;5038795;28;70014;-40
2023/10/07 06:33:23;;;;;;;2.05;1.50;;;;;;;32.50;71.31;100722.00;5037297;28;65891;-38
2023/10/07 06:35:54;;;;;;;2.15;1.80;;;;;;;32.53;71.44;100726.13;5036534;28;70624;-39
2023/10/07 06:38:26;;;;;;;1.83;1.65;;;;;;;32.62;71.04;100730.16;5038496;28;66111;-39
2023/10/07 06:40:57;;;;;;;1.70;1.60;;;;;;;32.68;70.87;100723.75;5037608;28;70311;-38
2023/10/07 06:43:31;;;;;;;1.95;1.60;;;;;;;32.66;70.51;100712.31;5034987;28;66411;-39
2023/10/07 06:46:10;;;;;;;2.10;1.80;;;;;;;32.68;70.46;100702.03;5038007;28;69346;-38
2023/10/07 06:48:42;;;;;;;2.33;1.83;;;;;;;32.67;70.61;100689.53;5036156;28;65647;-39
2023/10/07 06:51:14;;;;;;;1.70;1.55;;;;;;;32.75;70.73;100699.22;5040767;28;69277;-39
2023/10/07 06:53:45;;;;;;;1.20;1.10;;;;;;;32.81;70.33;100692.81;5041358;28;66019;-38
2023/10/07 06:56:23;;;;;;;2.08;1.85;;;;;;;32.76;70.18;100669.06;5037544;28;70470;-38
2023/10/07 06:58:54;;;;;;;1.40;1.30;;;;;;;32.86;70.19;100674.75;5040069;28;66802;-39
2023/10/07 07:04:11;;;;;;;3.08;1.60;;;;;;;32.85;70.25;100639.69;5041358;28;65683;-39
2023/10/07 07:06:44;;;;;;;5.72;1.70;;;;;;;32.93;70.01;100651.00;5041439;28;71015;-38
2023/10/07 07:12:09;;;;;;;2.58;1.80;;;;;;;32.98;69.68;100652.97;5042646;28;70724;-40
2023/10/07 07:14:46;;;;;;;1.85;1.30;;;;;;;33.00;69.51;100644.63;5041810;28;66361;-38
2023/10/07 07:17:30;;;;;;;2.00;1.73;;;;;;;33.03;69.48;100644.97;5041077;28;70358;-39
2023/10/07 07:22:49;;;;;;;4.55;1.58;;;;;;;32.76;69.18;100603.88;5024535;28;69642;-38
2023/10/07 07:25:35;;;;;;;5.72;1.92;;;;;;;33.08;69.11;100652.41;5041362;28;65999;-39
2023/10/07 07:28:09;;;;;;;3.53;2.17;;;;;;;33.11;69.57;100657.34;5039718;28;70262;-41
2023/10/07 07:30:43;;;;;;;2.15;1.70;;;;;;;33.13;69.01;100658.78;5041870;28;66522;-39
2023/10/07 07:33:15;;;;;;;2.00;1.45;;;;;;;33.15;69.14;100647.63;5039945;28;70446;-39
2023/10/07 07:35:51;;;;;;;2.05;1.67;;;;;;;33.18;68.61;100663.47;5040437;28;66472;-38
2023/10/07 07:38:30;;;;;;;1.65;1.55;;;;;;;33.13;68.47;100641.66;5041164;28;70145;-39
2023/10/07 07:41:55;;;;;;;2.95;1.63;;;;;;;33.21;68.17;100654.84;5012202;28;65815;-38
2023/10/07 07:44:08;;;;;;;5.13;1.75;;;;;;;33.09;68.59;100626.88;5035388;28;70622;-39
2023/10/07 07:46:51;;;;;;;4.07;1.75;;;;;;;33.22;68.67;100648.34;5040827;28;65821;-38
2023/10/07 07:49:28;;;;;;;2.20;1.60;;;;;;;33.25;68.63;100630.72;5032922;28;69281;-38
2023/10/07 07:52:02;;;;;;;2.97;1.98;;;;;;;33.25;68.64;100631.53;5039629;28;65704;-39
2023/10/07 07:54:33;;;;;;;4.38;1.70;;;;;;;33.26;68.60;100635.09;5039268;28;69881;-38
2023/10/07 07:57:04;;;;;;;2.43;1.80;;;;;;;33.26;68.52;100627.75;5037137;28;67057;-40
2023/10/07 07:59:35;;;;;;;1.65;1.55;;;;;;;33.30;68.45;100628.09;5039734;28;69725;-38
2023/10/07 08:02:16;;;;;;;3.15;1.95;;;;;;;33.29;68.09;100621.00;5041365;28;66536;-38
2023/10/07 08:04:49;;;;;;;;;;;;;;;33.10;67.83;100618.50;5038990;28;70887;-38
2023/10/07 08:09:58;;;;;;;2.47;1.92;;;;;;;33.11;68.15;100565.78;5040154;28;70353;-40
2023/10/07 08:12:31;;;;;;;1.92;1.77;;;;;;;33.29;68.06;100586.50;5041074;28;66171;-38
2023/10/07 08:15:21;;;;;;;1.85;1.52;;;;;;;33.43;67.89;100599.78;5038276;28;69656;-40
2023/10/07 08:17:56;;;;;;;2.33;1.02;;;;;;;33.45;66.23;100603.09;5040113;28;65770;-38
2023/10/07 08:20:37;;;;;;;3.42;1.20;;;;;;;33.49;66.17;100598.78;5040502;28;70296;-39
2023/10/07 08:23:08;;;;;;;3.85;1.58;;;;;;;33.48;65.89;100597.97;5039410;28;66484;-40
2023/10/07 08:25:45;;;;;;;3.55;1.95;;;;;;;33.51;66.44;100593.94;5039747;28;69077;-38
2023/10/07 08:28:41;;;;;;;3.53;1.90;;;;;;;33.54;65.83;100612.50;5038117;28;66068;-38
2023/10/07 08:31:18;;;;;;;4.35;1.70;;;;;;;33.54;65.96;100609.78;5041928;28;70494;-40
2023/10/07 08:36:43;;;;;;;5.60;1.70;;;;;;;33.64;65.72;100607.25;5041241;28;70617;-39
2023/10/07 08:39:19;;;;;;;4.57;1.70;;;;;;;33.66;65.99;100607.84;5042148;28;65755;-40
2023/10/07 08:41:52;;;;;;;4.50;1.90;;;;;;;33.69;65.77;100610.06;5039702;28;69182;-40
2023/10/07 08:44:31;;;;;;;3.67;2.08;;;;;;;33.71;65.81;100613.38;5040137;28;65695;-38
2023/10/07 08:47:05;;;;;;;4.47;1.88;;;;;;;33.72;66.16;100609.59;5039615;28;70306;-39
2023/10/07 08:49:38;;;;;;;2.60;2.00;;;;;;;33.71;66.05;100605.22;5037929;28;66625;-39
2023/10/07 08:52:34;;;;;;;2.60;1.55;;;;;;;33.74;65.99;100604.72;5038753;28;69625;-38
2023/10/07 08:55:04;;;;;;;2.38;2.10;;;;;;;33.79;66.23;100618.41;5036220;28;66032;-39
2023/10/07 08:57:36;;;;;;;2.88;1.67;;;;;;;33.77;66.09;100614.28;5039656;28;70088;-41
2023/10/07 09:00:11;;;;;;;3.55;1.90;;;;;;;33.85;65.76;100623.91;5040413;28;65287;-39
2023/10/07 09:02:42;;;;;;;4.20;2.00;;;;;;;33.79;65.78;100603.97;5038124;28;70028;-39
2023/10/07 09:05:19;;;;;;;6.25;2.28;;;;;;;33.86;66.04;100617.44;5038925;28;65275;-44
2023/10/07 09:07:50;;;;;;;1.83;1.73;;;;;;;33.85;65.30;100608.44;5038393;28;70989;-40
2023/10/07 09:10:27;;;;;;;2.28;1.73;;;;;;;33.94;63.86;100617.84;5037785;28;65533;-41
2023/10/07 09:13:04;;;;;;;2.47;2.15;;;;;;;33.95;62.50;100624.09;5036836;28;70405;-40
2023/10/07 09:15:36;;;;;;;4.50;2.50;;;;;;;33.97;61.97;100621.97;5039172;28;66342;-39
2023/10/07 09:18:10;;;;;;;3.10;2.80;;;;;;;33.97;61.75;100621.97;5038032;28;70280;-41
2023/10/07 09:20:45;;;;;;;3.13;2.75;;;;;;;34.00;61.65;100622.28;5038510;28;67030;-40
2023/10/07 09:23:19;;;;;;;2.60;2.40;;;;;;;33.97;61.67;100613.78;5038544;28;70715;-40
2023/10/07 09:25:52;;;;;;;2.50;2.30;;;;;;;33.96;61.21;100617.56;5040521;28;66638;-40
2023/10/07 09:28:35;;;;;;;3.22;2.35;;;;;;;34.03;60.54;100629.94;5035921;28;69720;-41
2023/10/07 09:31:06;;;;;;;4.72;2.55;;;;;;;34.03;61.26;100632.66;5037014;28;66240;-40
2023/10/07 09:33:37;;;;;;;2.55;2.35;;;;;;;34.00;61.22;100626.91;5038772;28;70566;-41
2023/10/07 09:39:16;;;;;;;2.42;2.13;;;;;;;34.00;61.82;100632.34;5039180;28;69804;-41
2023/10/07 09:42:03;;;;;;;2.55;2.35;;;;;;;33.59;62.15;100567.19;5040375;28;66453;-40
2023/10/07 09:44:37;;;;;;;3.10;2.22;;;;;;;33.96;62.84;100631.19;5039699;28;69517;-40
2023/10/07 09:47:20;;;;;;;2.65;2.15;;;;;;;33.97;62.79;100638.28;5039750;28;66128;-39
2023/10/07 09:49:57;;;;;;;3.17;2.03;;;;;;;33.93;63.17;100631.66;5032837;28;70234;-39
2023/10/07 09:52:32;;;;;;;4.47;2.13;;;;;;;33.96;63.61;100645.63;5038543;28;66391;-40
2023/10/07 09:55:21;;;;;;;2.33;1.73;;;;;;;33.97;63.18;100660.06;5039497;28;70007;-39
2023/10/07 09:58:05;;;;;;;2.17;1.80;;;;;;;33.70;63.39;100622.59;5035113;28;65532;-40
2023/10/07 10:03:30;;;;;;;2.90;2.20;;;;;;;33.33;65.23;100655.63;5040337;28;66216;-40
2023/10/07 10:06:04;;;;;;;5.80;2.30;;;;;;;33.77;64.63;100666.81;5040437;28;69481;-39
2023/10/07 10:08:44;;;;;;;4.30;1.95;;;;;;;33.87;65.06;100676.19;5038220;28;65552;-40
2023/10/07 10:12:18;;;;;;;2.83;1.70;;;;;;;33.89;64.66;100669.44;5039340;28;70638;-40
2023/10/07 10:16:45;;;;;;;2.40;2.10;;;;;;;33.92;64.74;100687.19;5032547;28;69591;-41
2023/10/07 10:20:12;;;;;;;5.47;1.90;;;;;;;33.85;65.05;100691.94;5039958;28;67005;-39
2023/10/07 10:22:29;;;;;;;3.20;2.20;;;;;;;33.85;65.36;100678.34;5035372;28;69092;-40
2023/10/07 10:25:22;;;;;;;6.77;2.07;;;;;;;33.85;65.14;100692.78;5040386;28;66368;-41
2023/10/07 10:28:02;;;;;;;4.00;2.47;;;;;;;33.49;65.01;100636.84;5038476;28;70595;-39
2023/10/07 10:30:33;;;;;;;4.00;2.72;;;;;;;33.85;65.29;100690.06;5033194;28;65290;-46
2023/10/07 10:33:08;;;;;;;2.87;2.40;;;;;;;33.81;65.71;100689.72;5039887;28;70112;-47
2023/10/07 10:35:40;;;;;;;4.20;2.83;;;;;;;33.88;65.66;100707.78;5039581;28;66185;-39
2023/10/07 10:38:13;;;;;;;5.65;2.58;;;;;;;33.85;65.94;100706.41;5035426;28;70191;-41
2023/10/07 10:40:47;;;;;;;5.72;3.30;;;;;;;33.45;67.23;100706.41;5041068;28;66620;-40
2023/10/07 10:43:24;;;;;;;4.97;2.85;;;;;;;33.02;69.02;100707.72;5035318;28;70898;-41
2023/10/07 10:46:06;;;;;;;3.13;2.72;;;;;;;32.61;70.60;100679.63;5037030;28;66117;-39
2023/10/07 10:48:40;;;;;;;4.95;3.33;;;;;;;32.73;71.17;100710.31;5033606;28;70216;-40
2023/10/07 10:51:12;;;;;;;4.90;3.20;;;;;;;32.65;72.01;100716.09;5031925;28;66334;-41
2023/10/07 10:53:46;;;;;;;4.15;3.75;;;;;;;32.59;72.61;100719.75;5052410;28;70230;-41
2023/10/07 10:56:17;;;;;;;7.57;3.42;;;;;;;32.52;73.32;100722.59;5039253;28;66580;-40
2023/10/07 10:58:55;;;;;;;4.07;3.38;;;;;;;32.20;73.17;100684.03;5016934;28;69199;-41
2023/10/07 11:01:36;;;;;;;3.83;3.53;;;;;;;32.43;73.83;100727.53;5035131;28;66572;-40
2023/10/07 11:04:07;;;;;;;4.60;4.20;;;;;;;32.34;74.28;100709.91;5041870;28;69940;-40
2023/10/07 11:06:40;;;;;;;4.40;4.00;;;;;;;32.28;74.75;100697.28;5037483;28;66318;-40
2023/10/07 11:09:17;;;;;;;4.15;3.83;;;;;;;32.40;75.00;100717.13;5038695;28;69844;-39
2023/10/07 11:11:52;;;;;;;4.45;4.05;;;;;;;32.39;75.11;100733.66;5037353;28;65767;-40
2023/10/07 11:14:23;;;;;;;4.35;4.05;;;;;;;32.36;75.46;100737.66;5052614;28;70667;-41
2023/10/07 11:16:57;;;;;;;4.63;4.32;;;;;;;32.33;75.47;100734.59;5055905;28;66482;-43
2023/10/07 11:19:28;;;;;;;10.60;6.65;;;;;;;32.33;76.12;100732.69;5038912;28;70125;-39
2023/10/07 11:21:59;;;;;;;8.48;5.75;;;;;;;32.34;76.33;100734.34;5023505;28;64274;-39
2023/10/07 11:24:34;;;;;;;7.93;7.13;;;;;;;32.32;77.13;100739.19;5038852;28;70351;-40
2023/10/07 11:27:08;;;;;;;6.60;6.10;;;;;;;32.18;77.12;100730.44;5046543;28;66879;-40
2023/10/07 11:29:40;;;;;;;6.40;6.00;;;;;;;32.27;77.29;100763.50;5040476;28;69796;-39
2023/10/07 11:32:12;;;;;;;8.43;5.78;;;;;;;32.30;77.49;100782.03;5038611;28;65362;-40
2023/10/07 11:34:44;;;;;;;6.78;6.28;;;;;;;32.22;77.69;100780.47;5036883;28;70390;-41
2023/10/07 11:37:21;;;;;;;6.90;6.40;;;;;;;32.17;78.03;100793.06;5039792;28;66769;-40
2023/10/07 11:39:53;;;;;;;6.32;5.93;;;;;;;32.21;77.89;100816.81;5040642;28;70545;-39
2023/10/07 11:42:24;;;;;;;7.97;6.22;;;;;;;32.22;78.35;100823.06;5042485;28;66679;-41
2023/10/07 11:44:55;;;;;;;6.30;5.90;;;;;;;32.25;78.63;100828.03;5042247;28;70021;-42
2023/10/07 11:47:27;;;;;;;6.90;6.50;;;;;;;32.23;78.71;100838.28;5042552;28;65790;-41
2023/10/07 11:49:57;;;;;;;9.55;6.57;;;;;;;32.31;78.76;100859.66;5042479;28;70451;-51
2023/10/07 11:52:29;;;;;;;12.13;6.68;;;;;;;32.25;79.13;100866.03;5055832;28;65525;-43
2023/10/07 11:55:00;;;;;;;6.50;6.10;;;;;;;32.21;79.25;100870.28;5041978;28;69446;-42
2023/10/07 11:57:34;;;;;;;7.97;6.50;;;;;;;32.33;78.07;100892.84;5041744;28;66190;-40
2023/10/07 12:00:22;;;;;;;7.00;6.60;;;;;;;32.35;78.13;100903.50;5039782;28;69247;-42
2023/10/07 12:03:00;;;;;;;7.30;6.80;;;;;;;32.39;77.87;100912.81;5040537;28;65351;-39
2023/10/07 12:05:31;;;;;;;6.53;6.13;;;;;;;32.34;78.38;100928.97;5035062;28;70453;-40
2023/10/07 12:08:02;;;;;;;7.20;6.70;;;;;;;32.30;79.03;100923.16;5039034;28;66998;-41
2023/10/07 12:10:33;;;;;;;6.70;6.30;;;;;;;32.04;78.95;100880.94;5042345;28;70403;-41
2023/10/07 12:13:11;;;;;;;7.53;6.80;;;;;;;32.31;78.89;100927.53;5041811;28;66004;-39
2023/10/07 12:15:42;;;;;;;7.32;6.72;;;;;;;32.31;79.04;100930.25;5036191;28;69866;-40
2023/10/07 12:18:19;;;;;;;7.00;6.40;;;;;;;32.37;77.26;100926.59;5043945;28;67327;-38
2023/10/07 12:20:51;;;;;;;8.88;7.22;;;;;;;32.37;77.91;100932.03;5026726;28;69193;-40
2023/10/07 12:23:21;;;;;;;;;;;;;;;32.08;80.50;100935.56;5044367;28;65376;-40
2023/10/07 12:25:51;;;;;;;9.68;7.07;;;;;;;32.30;78.95;100939.47;5039481;28;69732;-39
2023/10/07 12:28:22;;;;;;;11.52;6.57;;;;;;;32.37;78.43;100959.19;5040675;28;66558;-41
2023/10/07 12:30:52;;;;;;;10.73;6.28;;;;;;;32.41;78.00;100965.84;5042460;28;70149;-39
2023/10/07 12:33:23;;;;;;;6.30;5.70;;;;;;;32.33;79.12;100987.88;5040936;28;65814;-39
2023/10/07 12:36:14;;;;;;;10.43;5.82;;;;;;;32.28;79.40;100993.97;5037456;28;70415;-40
2023/10/07 12:38:46;;;;;;;6.37;5.80;;;;;;;32.34;78.67;101000.38;5039802;28;65988;-38